Time;durP1;ratioP1;P1;durP2;ratioP2;P2;SDS_P1;SDS_P2;PMS_P1;PMS_P2;Temp;Humidity;BMP_temperature;BMP_pressure;BME280_temperature;BME280_humidity;BME280_pressure;Samples;Min_cycle;Max_cycle;Signal;HPM_P1;HPM_P2
2023/05/15 00:00:17;;;;;;;6.40;2.77;;;16.10;99.90;;;;;;5070953;28;20182;-73
2023/05/15 00:02:44;;;;;;;9.30;3.07;;;16.10;99.90;;;;;;5071561;28;20219;-73
2023/05/15 00:05:12;;;;;;;5.63;3.50;;;16.10;99.90;;;;;;5069067;28;20225;-73
2023/05/15 00:07:39;;;;;;;6.70;2.90;;;16.10;99.90;;;;;;5071809;28;20901;-73
2023/05/15 00:10:07;;;;;;;5.27;3.10;;;16.10;99.90;;;;;;5070399;28;20277;-73
2023/05/15 00:12:34;;;;;;;5.17;3.00;;;16.10;99.90;;;;;;5052718;28;20293;-73
2023/05/15 00:15:00;;;;;;;6.37;2.83;;;16.10;99.90;;;;;;5053799;28;20190;-73
2023/05/15 00:17:26;;;;;;;5.50;3.13;;;16.00;99.90;;;;;;5071049;28;20194;-73
2023/05/15 00:19:57;;;;;;;7.67;3.37;;;16.00;99.90;;;;;;5085025;28;20255;-73
2023/05/15 00:22:25;;;;;;;4.00;2.83;;;16.00;99.90;;;;;;5069256;28;20208;-73
2023/05/15 00:24:51;;;;;;;2.70;2.47;;;16.00;99.90;;;;;;5069770;28;20216;-73
2023/05/15 00:27:17;;;;;;;3.97;2.77;;;15.80;99.90;;;;;;5072111;28;20193;-73
2023/05/15 00:29:44;;;;;;;5.30;3.23;;;15.80;99.90;;;;;;5070015;28;20213;-73
2023/05/15 00:32:10;;;;;;;5.93;3.40;;;15.80;99.90;;;;;;5071217;28;20194;-73
2023/05/15 00:34:37;;;;;;;4.73;2.60;;;15.80;99.90;;;;;;5070161;28;20185;-73
2023/05/15 00:37:03;;;;;;;6.00;3.23;;;15.80;99.90;;;;;;5068900;28;20178;-73
2023/05/15 00:39:29;;;;;;;5.03;3.30;;;15.70;99.90;;;;;;5084698;28;20208;-73
2023/05/15 00:41:59;;;;;;;5.20;2.63;;;15.70;99.90;;;;;;5068787;28;20205;-73
2023/05/15 00:44:27;;;;;;;4.27;2.80;;;15.70;99.90;;;;;;5071755;28;20187;-73
2023/05/15 00:46:56;;;;;;;3.70;2.67;;;15.80;99.90;;;;;;5070227;28;20240;-73
2023/05/15 00:49:25;;;;;;;7.77;3.00;;;15.70;99.90;;;;;;5068356;28;20182;-73
2023/05/15 00:51:53;;;;;;;6.23;2.60;;;15.80;99.90;;;;;;5066664;28;20714;-73
2023/05/15 00:54:19;;;;;;;10.30;2.90;;;15.70;99.90;;;;;;5053939;28;20273;-73
2023/05/15 00:56:48;;;;;;;5.03;2.60;;;15.70;99.90;;;;;;5070914;28;20270;-74
2023/05/15 00:59:16;;;;;;;5.43;3.17;;;15.70;99.90;;;;;;5053248;28;20182;-73
2023/05/15 01:01:44;;;;;;;7.27;2.70;;;15.80;99.90;;;;;;5068136;28;20365;-73
2023/05/15 01:04:10;;;;;;;6.00;2.93;;;15.80;99.90;;;;;;5070277;28;20269;-73
2023/05/15 01:06:37;;;;;;;5.07;2.90;;;15.80;99.90;;;;;;5074415;28;20189;-73
2023/05/15 01:09:04;;;;;;;6.10;3.30;;;15.80;99.90;;;;;;5073975;28;20187;-73
2023/05/15 01:11:35;;;;;;;6.70;3.00;;;16.00;99.90;;;;;;5074907;28;20755;-73
2023/05/15 01:14:06;;;;;;;6.83;3.23;;;16.00;99.90;;;;;;5072978;28;20683;-74
2023/05/15 01:16:34;;;;;;;7.13;3.40;;;16.20;99.90;;;;;;5074921;28;20186;-74
2023/05/15 01:19:02;;;;;;;8.43;3.33;;;16.40;99.90;;;;;;5071522;28;20186;-74
2023/05/15 01:22:17;;;;;;;7.23;3.00;;;16.50;99.90;;;;;;5073018;28;20980;-73
2023/05/15 01:25:08;;;;;;;5.90;2.63;;;16.50;99.90;;;;;;5070344;28;20195;-74
2023/05/15 01:27:46;;;;;;;6.93;3.07;;;16.50;99.90;;;;;;5069620;28;20178;-73
2023/05/15 01:30:24;;;;;;;4.33;2.97;;;16.60;99.90;;;;;;5073060;28;20660;-74
2023/05/15 01:33:02;;;;;;;6.70;3.43;;;16.60;99.90;;;;;;5065633;28;20171;-74
2023/05/15 01:35:56;;;;;;;5.63;2.70;;;16.60;99.90;;;;;;5072016;28;20683;-74
2023/05/15 01:38:55;;;;;;;9.47;3.50;;;16.50;99.90;;;;;;5048718;28;20958;-73
2023/05/15 01:41:48;;;;;;;5.77;3.17;;;16.30;99.90;;;;;;5086577;28;20190;-73
2023/05/15 01:44:35;;;;;;;5.90;3.23;;;16.10;99.90;;;;;;5072291;28;20279;-73
2023/05/15 01:47:13;;;;;;;7.10;3.23;;;16.10;99.90;;;;;;5070462;28;20213;-73
2023/05/15 01:49:44;;;;;;;4.57;3.10;;;15.90;99.90;;;;;;5071026;28;20189;-74
2023/05/15 01:52:37;;;;;;;7.33;3.07;;;15.90;99.90;;;;;;5071016;28;20237;-74
2023/05/15 01:55:07;;;;;;;7.60;3.03;;;15.80;99.90;;;;;;5060428;28;20194;-73
2023/05/15 01:57:36;;;;;;;4.43;3.00;;;15.80;99.90;;;;;;5071294;28;20189;-73
2023/05/15 02:00:04;;;;;;;7.30;3.47;;;15.70;99.90;;;;;;5071688;28;20286;-77
2023/05/15 02:02:31;;;;;;;7.23;3.20;;;15.70;99.90;;;;;;5070380;28;20313;-73
2023/05/15 02:04:59;;;;;;;6.77;3.30;;;15.70;99.90;;;;;;5079513;28;20209;-72
2023/05/15 02:07:26;;;;;;;5.47;3.10;;;15.60;99.90;;;;;;5083700;28;20304;-72
2023/05/15 02:09:54;;;;;;;5.30;3.20;;;15.60;99.90;;;;;;5082449;28;20182;-72
2023/05/15 02:12:21;;;;;;;5.10;3.50;;;15.60;99.90;;;;;;5083334;28;20197;-72
2023/05/15 02:14:49;;;;;;;5.53;3.30;;;15.60;99.90;;;;;;5080550;28;20294;-72
2023/05/15 02:17:16;;;;;;;6.10;3.50;;;15.70;99.90;;;;;;5083179;28;20253;-72
2023/05/15 02:19:42;;;;;;;6.07;3.40;;;15.70;99.90;;;;;;5097340;28;20242;-72
2023/05/15 02:22:09;;;;;;;5.83;3.30;;;15.70;99.90;;;;;;5083621;28;20202;-72
2023/05/15 02:24:35;;;;;;;8.67;3.07;;;15.70;99.90;;;;;;5085809;28;20178;-72
2023/05/15 02:27:25;;;;;;;6.43;3.27;;;15.70;99.90;;;;;;5080481;28;20202;-72
2023/05/15 02:30:19;;;;;;;4.10;3.10;;;15.70;99.90;;;;;;5081994;28;20183;-72
2023/05/15 02:33:33;;;;;;;5.30;3.10;;;15.60;99.90;;;;;;5064867;28;20210;-72
2023/05/15 02:36:06;;;;;;;6.23;3.13;;;15.60;99.90;;;;;;5082661;28;20198;-72
2023/05/15 02:38:48;;;;;;;7.40;3.30;;;15.60;99.90;;;;;;5082440;28;20186;-72
2023/05/15 02:41:16;;;;;;;4.85;3.25;;;15.50;99.90;;;;;;5066047;28;20430;-72
2023/05/15 02:43:44;;;;;;;5.88;3.42;;;15.60;99.90;;;;;;5082904;28;21129;-72
2023/05/15 02:46:13;;;;;;;5.17;3.37;;;15.70;99.90;;;;;;5083192;28;20221;-72
2023/05/15 02:48:42;;;;;;;8.67;3.53;;;15.70;99.90;;;;;;5083692;28;20195;-72
2023/05/15 02:51:09;;;;;;;5.32;3.30;;;15.70;99.90;;;;;;5075114;28;20435;-72
2023/05/15 02:53:40;;;;;;;5.03;3.27;;;15.70;99.90;;;;;;5084238;28;20277;-72
2023/05/15 02:56:07;;;;;;;5.60;3.45;;;15.70;99.90;;;;;;5078774;28;20398;-72
2023/05/15 02:58:35;;;;;;;4.03;3.23;;;15.70;99.90;;;;;;5083006;28;20193;-72
2023/05/15 03:01:01;;;;;;;4.93;3.40;;;15.70;99.90;;;;;;5083803;28;20640;-72
2023/05/15 03:03:27;;;;;;;6.83;3.53;;;15.70;99.90;;;;;;5080383;28;21041;-72
2023/05/15 03:05:53;;;;;;;5.97;3.10;;;15.60;99.90;;;;;;5084286;28;20652;-72
2023/05/15 03:08:20;;;;;;;6.23;3.40;;;15.60;99.90;;;;;;5083855;28;20553;-72
2023/05/15 03:10:46;;;;;;;5.60;3.30;;;15.60;99.90;;;;;;5083444;28;20182;-72
2023/05/15 03:13:12;;;;;;;9.47;3.57;;;15.60;99.90;;;;;;5082931;28;20553;-72
2023/05/15 03:15:38;;;;;;;4.90;3.23;;;15.70;99.90;;;;;;5083902;28;20190;-72
2023/05/15 03:18:05;;;;;;;7.43;3.00;;;15.70;99.90;;;;;;5083784;28;20190;-72
2023/05/15 03:20:31;;;;;;;5.60;3.10;;;15.70;99.90;;;;;;5083045;28;20239;-72
2023/05/15 03:22:57;;;;;;;4.77;3.43;;;15.70;99.90;;;;;;5097123;27;20675;-72
2023/05/15 03:25:23;;;;;;;6.50;3.80;;;15.60;99.90;;;;;;5082623;28;20182;-72
2023/05/15 03:28:15;;;;;;;4.77;3.20;;;15.60;99.90;;;;;;5084335;28;20174;-72
2023/05/15 03:30:44;;;;;;;8.03;3.70;;;15.60;99.90;;;;;;5081292;28;20194;-72
2023/05/15 03:33:10;;;;;;;6.63;3.13;;;15.70;99.90;;;;;;5082583;28;20796;-72
2023/05/15 03:35:37;;;;;;;5.47;3.40;;;15.70;99.90;;;;;;5082732;28;20204;-72
2023/05/15 03:38:03;;;;;;;9.60;3.83;;;15.70;99.90;;;;;;5075651;28;20730;-72
2023/05/15 03:40:29;;;;;;;7.53;3.70;;;15.80;99.90;;;;;;5081166;28;20182;-72
2023/05/15 03:42:57;;;;;;;8.10;3.53;;;15.80;99.90;;;;;;5079418;28;20209;-72
2023/05/15 03:45:23;;;;;;;5.30;3.33;;;15.80;99.90;;;;;;5080672;28;20303;-72
2023/05/15 03:47:49;;;;;;;7.83;3.60;;;15.90;99.90;;;;;;5070607;28;20294;-72
2023/05/15 03:50:15;;;;;;;6.07;3.90;;;15.90;99.90;;;;;;5084075;28;20178;-72
2023/05/15 03:52:42;;;;;;;7.13;3.57;;;15.90;99.90;;;;;;5080152;28;20273;-72
2023/05/15 03:55:08;;;;;;;8.63;3.53;;;15.90;99.90;;;;;;5083804;28;20191;-72
2023/05/15 03:57:35;;;;;;;5.67;3.80;;;16.00;99.90;;;;;;5096674;28;20198;-72
2023/05/15 04:00:06;;;;;;;5.47;3.73;;;16.00;99.90;;;;;;5076670;28;20226;-72
2023/05/15 04:02:32;;;;;;;8.67;3.67;;;16.00;99.90;;;;;;5078663;28;20233;-72
2023/05/15 04:04:58;;;;;;;6.53;3.30;;;16.10;99.90;;;;;;5075429;28;20610;-72
2023/05/15 04:07:25;;;;;;;4.63;3.20;;;16.10;99.90;;;;;;5074831;28;20541;-72
2023/05/15 04:09:52;;;;;;;7.17;3.33;;;16.20;99.90;;;;;;5073991;28;20175;-73
2023/05/15 04:12:18;;;;;;;8.67;4.03;;;16.20;99.90;;;;;;5075865;28;20269;-73
2023/05/15 04:14:44;;;;;;;6.63;3.53;;;16.30;99.90;;;;;;5079471;28;20247;-73
2023/05/15 04:17:10;;;;;;;9.40;3.80;;;16.30;99.90;;;;;;5077988;28;20226;-73
2023/05/15 04:19:37;;;;;;;6.33;3.67;;;16.40;99.90;;;;;;5081715;28;20197;-73
2023/05/15 04:22:03;;;;;;;5.77;3.90;;;16.40;99.90;;;;;;5077724;28;20260;-73
2023/05/15 04:24:29;;;;;;;6.93;3.73;;;16.50;99.90;;;;;;5077691;28;20243;-73
2023/05/15 04:26:55;;;;;;;6.97;4.50;;;16.50;99.90;;;;;;5074687;28;20186;-73
2023/05/15 04:29:22;;;;;;;9.53;5.10;;;16.60;99.90;;;;;;5075541;28;20178;-73
2023/05/15 04:31:48;;;;;;;8.07;5.13;;;16.60;99.90;;;;;;5074662;28;20182;-73
2023/05/15 04:34:14;;;;;;;10.77;4.67;;;16.60;99.90;;;;;;5073703;28;20190;-73
2023/05/15 04:36:41;;;;;;;8.70;5.33;;;16.70;99.90;;;;;;5083305;28;20186;-73
2023/05/15 04:39:08;;;;;;;6.40;4.83;;;16.80;99.90;;;;;;5076781;28;20178;-73
2023/05/15 04:41:36;;;;;;;5.77;5.00;;;16.80;99.90;;;;;;5075321;28;20221;-73
2023/05/15 04:44:02;;;;;;;10.60;5.60;;;16.80;99.90;;;;;;5083541;28;20190;-73
2023/05/15 04:46:29;;;;;;;8.97;5.63;;;16.90;99.90;;;;;;5082427;28;20240;-73
2023/05/15 04:48:55;;;;;;;7.27;5.77;;;16.90;99.90;;;;;;5072126;28;20541;-73
2023/05/15 04:51:21;;;;;;;9.70;6.30;;;17.00;99.90;;;;;;5082112;28;20178;-73
2023/05/15 04:53:47;;;;;;;9.93;6.10;;;17.00;99.90;;;;;;5077776;28;20545;-73
2023/05/15 04:56:14;;;;;;;7.77;5.83;;;17.10;99.90;;;;;;5076109;28;20553;-73
2023/05/15 04:58:40;;;;;;;9.27;5.93;;;17.10;99.90;;;;;;5073839;28;20186;-73
2023/05/15 05:01:06;;;;;;;9.70;6.20;;;17.10;99.90;;;;;;5074614;28;20193;-73
2023/05/15 05:03:32;;;;;;;12.70;5.73;;;17.20;99.90;;;;;;5077425;28;20237;-73
2023/05/15 05:05:59;;;;;;;8.13;5.17;;;17.20;99.90;;;;;;5073258;28;20187;-74
2023/05/15 05:08:26;;;;;;;11.43;5.73;;;17.30;99.90;;;;;;5078460;28;20186;-73
2023/05/15 05:10:59;;;;;;;8.53;5.97;;;17.30;99.90;;;;;;5076543;28;20409;-73
2023/05/15 05:13:25;;;;;;;7.30;5.85;;;17.40;99.90;;;;;;5074928;28;20399;-73
2023/05/15 05:15:51;;;;;;;9.90;5.50;;;17.40;99.90;;;;;;5081868;28;20273;-73
2023/05/15 05:18:18;;;;;;;8.67;5.17;;;17.50;99.90;;;;;;5079551;28;20189;-73
2023/05/15 05:20:45;;;;;;;8.30;5.70;;;17.50;99.90;;;;;;5074556;28;20704;-73
2023/05/15 05:23:13;;;;;;;8.73;5.37;;;17.60;99.90;;;;;;5082466;28;20272;-73
2023/05/15 05:25:39;;;;;;;11.07;5.27;;;17.60;99.90;;;;;;5074191;28;20183;-73
2023/05/15 05:28:06;;;;;;;6.83;4.23;;;17.70;99.90;;;;;;5077343;28;20205;-73
2023/05/15 05:30:32;;;;;;;8.40;4.57;;;17.70;99.90;;;;;;5074852;28;20252;-72
2023/05/15 05:32:58;;;;;;;9.97;5.30;;;17.80;99.90;;;;;;5076598;28;20280;-73
2023/05/15 05:35:27;;;;;;;10.33;5.43;;;17.90;99.90;;;;;;5074825;28;20181;-73
2023/05/15 05:37:53;;;;;;;6.17;5.03;;;18.00;99.90;;;;;;5073202;28;20186;-73
2023/05/15 05:40:19;;;;;;;11.13;5.27;;;18.00;99.90;;;;;;5072120;28;20286;-73
2023/05/15 05:42:45;;;;;;;8.70;5.80;;;18.10;99.90;;;;;;5073153;28;20264;-73
2023/05/15 05:45:11;;;;;;;7.33;5.23;;;18.20;99.90;;;;;;5081371;28;20197;-73
2023/05/15 05:47:38;;;;;;;10.60;6.17;;;18.20;99.90;;;;;;5072479;28;20183;-73
2023/05/15 05:50:06;;;;;;;9.73;6.00;;;18.30;99.90;;;;;;5083426;28;20187;-73
2023/05/15 05:52:32;;;;;;;9.30;5.40;;;18.40;99.90;;;;;;5078064;28;20867;-72
2023/05/15 05:54:58;;;;;;;7.83;5.47;;;18.40;99.90;;;;;;5078160;28;20190;-72
2023/05/15 05:57:25;;;;;;;10.10;5.70;;;18.50;99.90;;;;;;5077139;28;20260;-73
2023/05/15 05:59:51;;;;;;;11.27;6.10;;;18.50;99.90;;;;;;5079536;28;20545;-73
2023/05/15 06:02:18;;;;;;;10.87;5.63;;;18.60;99.90;;;;;;5083567;28;20214;-73
2023/05/15 06:04:45;;;;;;;9.00;5.77;;;18.60;99.90;;;;;;5075640;28;20857;-73
2023/05/15 06:07:11;;;;;;;7.27;5.37;;;18.70;99.90;;;;;;5078572;28;20190;-73
2023/05/15 06:09:38;;;;;;;9.10;5.73;;;18.80;99.90;;;;;;5075419;28;20573;-73
2023/05/15 06:12:06;;;;;;;9.20;5.83;;;18.80;99.90;;;;;;5081788;28;20191;-73
2023/05/15 06:14:33;;;;;;;9.10;5.70;;;19.00;99.90;;;;;;5086099;28;20182;-73
2023/05/15 06:17:00;;;;;;;8.37;5.33;;;19.00;99.90;;;;;;5083008;28;20191;-73
2023/05/15 06:19:29;;;;;;;10.73;6.07;;;19.10;99.90;;;;;;5083278;28;20265;-73
2023/05/15 06:21:55;;;;;;;9.97;5.67;;;19.20;99.90;;;;;;5074357;28;20190;-73
2023/05/15 06:24:21;;;;;;;9.10;5.67;;;19.20;99.90;;;;;;5079313;28;20609;-73
2023/05/15 06:26:48;;;;;;;22.40;5.93;;;19.20;99.90;;;;;;5075720;28;20493;-73
2023/05/15 06:29:14;;;;;;;9.77;5.80;;;19.30;99.90;;;;;;5076384;28;20253;-73
2023/05/15 06:31:40;;;;;;;8.37;5.87;;;19.40;99.90;;;;;;5075320;28;20179;-73
2023/05/15 06:34:07;;;;;;;13.50;5.00;;;19.50;99.90;;;;;;5078735;28;20179;-73
2023/05/15 06:36:34;;;;;;;12.67;5.00;;;19.50;99.90;;;;;;5075492;28;20270;-73
2023/05/15 06:39:00;;;;;;;10.23;5.20;;;19.60;99.90;;;;;;5079653;28;20193;-73
2023/05/15 06:41:26;;;;;;;11.50;5.20;;;19.70;99.90;;;;;;5080652;28;20220;-73
2023/05/15 06:43:53;;;;;;;10.57;5.37;;;19.80;99.90;;;;;;5093256;28;20191;-73
2023/05/15 06:46:20;;;;;;;6.37;5.30;;;19.90;99.90;;;;;;5079034;28;20197;-73
2023/05/15 06:48:47;;;;;;;9.57;5.50;;;19.90;99.90;;;;;;5077843;28;20244;-73
2023/05/15 06:51:13;;;;;;;9.70;5.90;;;20.10;99.90;;;;;;5077627;28;20436;-73
2023/05/15 06:53:41;;;;;;;8.87;5.03;;;20.10;99.90;;;;;;5080075;28;20213;-73
2023/05/15 06:56:08;;;;;;;9.57;5.20;;;20.30;99.90;;;;;;5075616;28;20715;-73
2023/05/15 06:58:34;;;;;;;8.53;5.63;;;20.40;99.90;;;;;;5076999;28;20178;-73
2023/05/15 07:01:05;;;;;;;10.10;5.50;;;20.40;99.90;;;;;;5073848;28;20205;-73
2023/05/15 07:03:32;;;;;;;9.43;5.37;;;20.50;99.90;;;;;;5078384;28;20218;-73
2023/05/15 07:05:58;;;;;;;8.60;5.50;;;20.70;99.90;;;;;;5076488;28;20213;-73
2023/05/15 07:08:25;;;;;;;10.50;6.07;;;20.80;99.90;;;;;;5082443;28;20185;-73
2023/05/15 07:10:52;;;;;;;10.30;5.10;;;20.80;99.90;;;;;;5080009;28;20201;-73
2023/05/15 07:13:20;;;;;;;8.60;5.13;;;20.90;99.90;;;;;;5075793;28;20201;-73
2023/05/15 07:15:47;;;;;;;10.13;5.30;;;21.00;99.90;;;;;;5084448;28;20186;-73
2023/05/15 07:18:14;;;;;;;7.90;5.07;;;21.10;99.90;;;;;;5082789;28;20660;-73
2023/05/15 07:20:40;;;;;;;10.40;5.47;;;21.20;99.90;;;;;;5075764;28;20210;-73
2023/05/15 07:23:06;;;;;;;9.67;5.40;;;21.30;99.90;;;;;;5074494;28;20202;-73
2023/05/15 07:25:33;;;;;;;8.40;5.27;;;21.40;99.90;;;;;;5077979;28;20175;-73
2023/05/15 07:27:59;;;;;;;7.67;5.40;;;21.50;99.90;;;;;;5079175;28;20909;-73
2023/05/15 07:30:25;;;;;;;10.33;5.40;;;21.60;99.90;;;;;;5079133;28;20174;-73
2023/05/15 07:32:51;;;;;;;8.87;5.17;;;21.70;99.90;;;;;;5074365;28;20190;-73
2023/05/15 07:35:18;;;;;;;8.47;5.20;;;21.80;99.90;;;;;;5079232;28;20687;-73
2023/05/15 07:37:45;;;;;;;11.13;5.50;;;21.80;99.90;;;;;;5080022;28;20193;-73
2023/05/15 07:40:11;;;;;;;15.20;5.60;;;21.90;99.90;;;;;;5079658;28;20257;-74
2023/05/15 07:42:38;;;;;;;9.07;5.10;;;22.10;99.90;;;;;;5076484;28;20218;-73
2023/05/15 07:45:06;;;;;;;13.87;5.93;;;22.20;99.90;;;;;;5079896;28;20182;-74
2023/05/15 07:47:33;;;;;;;11.00;5.60;;;22.30;99.90;;;;;;5075044;28;20246;-73
2023/05/15 07:49:59;;;;;;;8.77;5.33;;;22.50;99.90;;;;;;5074799;28;20186;-73
2023/05/15 07:52:25;;;;;;;9.90;5.37;;;22.60;99.90;;;;;;5074637;28;20251;-73
2023/05/15 07:54:51;;;;;;;8.47;5.67;;;22.70;99.90;;;;;;5083086;28;20767;-73
2023/05/15 07:57:19;;;;;;;8.80;5.50;;;22.70;99.90;;;;;;5075020;28;20204;-74
2023/05/15 07:59:45;;;;;;;9.37;5.00;;;22.80;99.90;;;;;;5076017;28;20182;-74
2023/05/15 08:02:11;;;;;;;12.40;5.77;;;22.90;99.90;;;;;;5078734;28;20194;-74
2023/05/15 08:04:37;;;;;;;11.43;5.33;;;23.10;99.90;;;;;;5082059;28;20181;-74
2023/05/15 08:07:05;;;;;;;11.48;5.40;;;23.20;99.90;;;;;;5077092;28;20187;-74
2023/05/15 08:09:32;;;;;;;10.60;5.10;;;23.30;99.90;;;;;;5073368;28;20182;-74
2023/05/15 08:12:21;;;;;;;9.27;5.05;;;23.40;99.90;;;;;;5083239;28;20175;-74
2023/05/15 08:14:52;;;;;;;9.85;5.13;;;23.40;99.90;;;;;;5096637;27;20534;-74
2023/05/15 08:17:19;;;;;;;7.72;5.03;;;23.50;99.90;;;;;;5083748;28;20174;-74
2023/05/15 08:19:47;;;;;;;10.30;5.38;;;23.50;99.90;;;;;;5078078;28;20182;-74
2023/05/15 08:22:14;;;;;;;9.15;5.35;;;23.60;99.90;;;;;;5072987;28;20211;-74
2023/05/15 08:24:40;;;;;;;8.35;5.30;;;23.80;99.90;;;;;;5075540;28;20468;-74
2023/05/15 08:27:08;;;;;;;8.63;4.97;;;23.90;99.90;;;;;;5072838;28;20228;-74
2023/05/15 08:29:35;;;;;;;10.75;5.38;;;23.90;99.90;;;;;;5072264;28;20708;-73
2023/05/15 08:32:03;;;;;;;8.60;4.72;;;24.00;99.90;;;;;;5098038;28;20182;-74
2023/05/15 08:34:29;;;;;;;7.60;4.93;;;24.10;99.90;;;;;;5080848;28;20190;-74
2023/05/15 08:36:57;;;;;;;9.05;5.32;;;24.30;99.90;;;;;;5079346;28;20485;-74
2023/05/15 08:39:23;;;;;;;9.48;5.25;;;24.40;99.90;;;;;;5073084;28;20213;-74
2023/05/15 08:42:07;;;;;;;7.63;5.10;;;24.50;99.90;;;;;;5078031;28;20202;-74
2023/05/15 08:44:35;;;;;;;11.40;5.38;;;24.60;99.90;;;;;;5076655;28;20202;-74
2023/05/15 08:47:03;;;;;;;9.07;5.30;;;24.70;99.90;;;;;;5069977;28;20223;-74
2023/05/15 08:50:07;;;;;;;6.05;4.38;;;24.90;99.90;;;;;;5072682;28;20193;-74
2023/05/15 08:52:34;;;;;;;8.98;5.25;;;25.00;99.90;;;;;;5082759;28;20193;-74
2023/05/15 08:55:02;;;;;;;7.55;4.40;;;25.20;99.90;;;;;;5081932;28;20194;-74
2023/05/15 08:57:30;;;;;;;9.73;4.97;;;25.30;99.90;;;;;;5080734;28;20907;-74
2023/05/15 08:59:58;;;;;;;8.63;4.45;;;25.40;99.90;;;;;;5080549;28;20206;-74
2023/05/15 09:02:25;;;;;;;8.18;4.50;;;25.50;99.90;;;;;;5063537;28;20302;-74
2023/05/15 09:04:51;;;;;;;12.60;4.97;;;25.60;99.90;;;;;;5076322;28;20187;-74
2023/05/15 09:07:19;;;;;;;8.45;4.10;;;25.70;99.90;;;;;;5074598;28;20582;-74
2023/05/15 09:09:46;;;;;;;8.52;4.38;;;25.90;99.90;;;;;;5078772;28;20202;-74
2023/05/15 09:12:16;;;;;;;12.40;5.10;;;26.00;99.90;;;;;;5076597;28;20651;-74
2023/05/15 09:14:44;;;;;;;11.75;5.07;;;26.10;99.90;;;;;;5080255;28;20265;-74
2023/05/15 09:17:11;;;;;;;8.25;4.82;;;26.30;99.90;;;;;;5078834;28;20189;-74
2023/05/15 09:19:42;;;;;;;8.60;4.90;;;26.30;99.90;;;;;;5072825;28;20292;-74
2023/05/15 09:22:24;;;;;;;7.90;4.95;;;26.30;99.90;;;;;;5077170;28;20197;-74
2023/05/15 09:24:52;;;;;;;8.13;4.40;;;26.30;99.90;;;;;;5080905;28;20243;-74
2023/05/15 09:27:19;;;;;;;8.25;4.30;;;26.40;99.90;;;;;;5065511;28;20185;-74
2023/05/15 09:29:46;;;;;;;6.22;3.92;;;26.40;99.90;;;;;;5084331;28;20186;-74
2023/05/15 09:32:14;;;;;;;6.55;3.83;;;26.40;99.90;;;;;;5081039;28;20766;-74
2023/05/15 09:34:43;;;;;;;10.88;4.30;;;26.60;99.90;;;;;;5082152;28;20692;-74
2023/05/15 09:37:26;;;;;;;7.07;4.45;;;26.80;99.90;;;;;;5080118;28;20182;-74
2023/05/15 09:39:52;;;;;;;9.32;4.97;;;26.80;99.90;;;;;;5084551;28;20186;-74
2023/05/15 09:42:18;;;;;;;7.43;5.00;;;26.90;99.90;;;;;;5080660;28;20194;-74
2023/05/15 09:44:45;;;;;;;9.95;4.75;;;26.90;99.90;;;;;;5082873;28;20649;-74
2023/05/15 09:47:15;;;;;;;9.85;4.55;;;27.00;99.90;;;;;;5082680;28;20652;-74
2023/05/15 09:49:45;;;;;;;12.05;5.32;;;27.10;99.90;;;;;;5081167;28;20593;-74
2023/05/15 09:52:15;;;;;;;8.30;4.30;;;27.20;99.90;;;;;;5078952;28;20548;-74
2023/05/15 09:54:47;;;;;;;8.25;4.50;;;27.30;99.90;;;;;;5072109;28;20182;-74
2023/05/15 09:57:14;;;;;;;11.95;5.07;;;27.30;99.90;;;;;;5074239;28;20198;-74
2023/05/15 09:59:46;;;;;;;8.05;5.00;;;27.20;99.90;;;;;;5065849;28;20320;-74
2023/05/15 10:02:30;;;;;;;8.50;4.60;;;27.20;99.90;;;;;;5079742;28;20194;-74
2023/05/15 10:04:58;;;;;;;8.00;4.45;;;27.30;99.90;;;;;;5083287;28;20190;-74
2023/05/15 10:07:33;;;;;;;6.00;3.70;;;27.30;99.90;;;;;;5082050;28;20190;-74
2023/05/15 10:10:02;;;;;;;7.68;4.05;;;27.30;99.90;;;;;;5083485;28;20187;-74
2023/05/15 10:12:30;;;;;;;8.43;4.30;;;27.30;99.90;;;;;;5082447;28;20303;-74
2023/05/15 10:14:59;;;;;;;9.75;4.50;;;27.30;99.90;;;;;;5082296;28;20190;-74
2023/05/15 10:17:30;;;;;;;13.93;3.78;;;27.40;99.90;;;;;;5065683;28;20190;-74
2023/05/15 10:19:59;;;;;;;10.73;4.00;;;27.40;99.90;;;;;;5083906;28;20186;-74
2023/05/15 10:22:31;;;;;;;9.10;3.53;;;27.30;99.90;;;;;;5085420;28;20214;-74
2023/05/15 10:25:20;;;;;;;8.20;3.65;;;27.40;99.90;;;;;;5098589;27;20234;-74
2023/05/15 10:27:50;;;;;;;6.53;3.38;;;27.30;99.90;;;;;;5079023;28;20269;-74
2023/05/15 10:30:17;;;;;;;8.38;3.47;;;27.30;99.90;;;;;;5059723;28;20669;-75
2023/05/15 10:32:45;;;;;;;7.00;3.10;;;27.30;99.90;;;;;;5081256;28;20228;-74
2023/05/15 10:35:12;;;;;;;13.15;3.38;;;27.20;99.90;;;;;;5063672;28;20217;-74
2023/05/15 10:37:42;;;;;;;7.65;3.47;;;27.10;99.90;;;;;;5065512;28;20186;-74
2023/05/15 10:40:11;;;;;;;6.47;3.28;;;27.00;99.90;;;;;;5084567;28;20194;-74
2023/05/15 10:42:44;;;;;;;8.80;3.50;;;27.00;99.90;;;;;;5084235;28;20232;-74
2023/05/15 10:45:11;;;;;;;9.57;3.92;;;26.90;99.90;;;;;;5080926;28;20741;-74
2023/05/15 10:47:41;;;;;;;6.75;3.47;;;26.90;99.90;;;;;;5084132;28;20190;-74
2023/05/15 10:50:08;;;;;;;7.22;4.00;;;27.00;99.90;;;;;;5082564;28;20572;-74
2023/05/15 10:52:38;;;;;;;7.40;4.07;;;26.80;99.90;;;;;;5079627;28;20228;-74
2023/05/15 10:55:23;;;;;;;6.03;3.55;;;26.70;99.90;;;;;;5083371;28;20248;-74
2023/05/15 10:57:50;;;;;;;7.82;4.25;;;26.60;99.90;;;;;;5082655;28;20193;-74
2023/05/15 11:00:23;;;;;;;10.10;4.28;;;26.50;99.90;;;;;;5066072;28;20224;-74
2023/05/15 11:02:57;;;;;;;8.15;4.13;;;26.40;99.90;;;;;;5082730;28;20206;-73
2023/05/15 11:05:24;;;;;;;7.82;3.72;;;26.40;99.90;;;;;;5078748;28;20361;-73
2023/05/15 11:08:20;;;;;;;9.85;4.60;;;26.40;99.90;;;;;;5080912;28;20777;-74
2023/05/15 11:10:46;;;;;;;10.10;4.93;;;26.50;99.90;;;;;;5079642;28;20189;-74
2023/05/15 11:13:12;;;;;;;12.90;4.75;;;26.30;99.90;;;;;;5084854;28;20179;-74
2023/05/15 11:15:47;;;;;;;10.98;4.93;;;26.20;99.90;;;;;;5081871;28;20263;-74
2023/05/15 11:18:13;;;;;;;9.32;5.40;;;26.10;99.90;;;;;;5081184;28;20635;-74
2023/05/15 11:21:05;;;;;;;8.80;5.20;;;26.10;99.90;;;;;;5078494;28;20247;-74
2023/05/15 11:23:40;;;;;;;8.85;4.65;;;25.90;99.90;;;;;;5081431;28;20264;-73
2023/05/15 11:26:07;;;;;;;8.50;5.22;;;25.90;99.90;;;;;;5083374;28;20186;-74
2023/05/15 11:28:42;;;;;;;14.00;5.00;;;25.70;99.90;;;;;;5082789;28;20621;-74
2023/05/15 11:31:09;;;;;;;10.45;5.22;;;25.60;99.90;;;;;;5076951;28;20572;-74
2023/05/15 11:33:39;;;;;;;10.52;5.28;;;25.40;99.90;;;;;;5077709;28;20244;-74
2023/05/15 11:36:06;;;;;;;10.18;5.15;;;25.60;99.90;;;;;;5096901;28;20202;-74
2023/05/15 11:38:38;;;;;;;9.65;5.32;;;25.60;99.90;;;;;;5081596;28;20396;-74
2023/05/15 11:41:18;;;;;;;11.32;5.90;;;25.50;99.90;;;;;;5080337;28;20233;-74
2023/05/15 11:43:45;;;;;;;12.90;5.35;;;25.40;99.90;;;;;;5077823;28;20217;-74
2023/05/15 11:46:13;;;;;;;9.20;5.22;;;25.40;99.90;;;;;;5075689;28;20186;-74
2023/05/15 11:48:49;;;;;;;10.80;5.40;;;25.30;99.90;;;;;;5079636;28;20182;-74
2023/05/15 11:51:23;;;;;;;10.25;4.85;;;25.30;99.90;;;;;;5083706;28;20216;-74
2023/05/15 11:53:52;;;;;;;7.97;4.72;;;25.30;99.90;;;;;;5076946;28;20185;-74
2023/05/15 11:56:29;;;;;;;7.10;3.92;;;25.40;99.90;;;;;;5078563;28;20641;-74
2023/05/15 11:58:58;;;;;;;8.20;4.53;;;25.40;99.90;;;;;;5075471;28;20305;-74
2023/05/15 12:01:28;;;;;;;9.77;4.70;;;25.30;99.90;;;;;;5084463;28;20744;-74
2023/05/15 12:03:54;;;;;;;11.57;5.53;;;25.30;99.90;;;;;;5077653;28;20604;-74
2023/05/15 12:06:21;;;;;;;11.15;5.32;;;25.20;99.90;;;;;;5074713;28;20179;-74
2023/05/15 12:08:52;;;;;;;8.60;4.43;;;25.20;99.90;;;;;;5080658;28;20201;-74
2023/05/15 12:11:22;;;;;;;9.30;5.10;;;25.30;99.90;;;;;;5081479;28;20189;-73
2023/05/15 12:13:54;;;;;;;13.68;5.35;;;25.30;99.90;;;;;;5078130;28;20210;-74
2023/05/15 12:16:30;;;;;;;9.70;5.05;;;25.20;99.90;;;;;;5090705;28;20197;-73
2023/05/15 12:18:57;;;;;;;10.88;5.20;;;25.10;99.90;;;;;;5078538;28;20946;-74
2023/05/15 12:21:25;;;;;;;13.80;5.82;;;25.10;99.90;;;;;;5077182;28;20255;-74
2023/05/15 12:23:54;;;;;;;10.02;5.00;;;25.00;99.90;;;;;;5090983;28;20634;-74
2023/05/15 12:26:23;;;;;;;11.77;5.75;;;25.00;99.90;;;;;;5058215;28;20293;-74
2023/05/15 12:28:50;;;;;;;12.20;5.63;;;24.80;99.90;;;;;;5080431;28;20222;-74
2023/05/15 12:31:17;;;;;;;14.30;5.70;;;24.90;99.90;;;;;;5078742;28;20672;-74
2023/05/15 12:33:45;;;;;;;14.20;5.93;;;24.90;99.90;;;;;;5077852;28;20269;-74
2023/05/15 12:36:11;;;;;;;10.32;5.65;;;24.90;99.90;;;;;;5079324;28;20878;-74
2023/05/15 12:38:39;;;;;;;17.33;6.07;;;25.00;99.90;;;;;;5072918;28;20189;-74
2023/05/15 12:41:09;;;;;;;12.27;5.70;;;25.00;99.90;;;;;;5072977;28;20236;-74
2023/05/15 12:43:36;;;;;;;13.90;6.35;;;24.90;99.90;;;;;;5079838;28;20293;-74
2023/05/15 12:46:02;;;;;;;14.80;6.38;;;24.80;99.90;;;;;;5076412;28;20637;-74
2023/05/15 12:48:31;;;;;;;9.57;5.50;;;24.60;99.90;;;;;;5078442;28;20271;-75
2023/05/15 12:51:06;;;;;;;11.82;6.05;;;24.70;99.90;;;;;;5061510;28;20182;-72
2023/05/15 12:53:33;;;;;;;12.18;6.10;;;24.60;99.90;;;;;;5077807;28;20194;-72
2023/05/15 12:56:00;;;;;;;12.82;6.45;;;24.60;99.90;;;;;;5083094;28;20676;-72